createdAt,value
2023-03-04T00:00:05.738Z,52.20
2023-03-04T00:02:32.221Z,52.20
2023-03-04T00:04:58.696Z,51.90
2023-03-04T00:07:25.167Z,52.10
2023-03-04T00:09:51.647Z,52.30
2023-03-04T00:12:18.136Z,52.40
2023-03-04T00:14:44.632Z,52.30
2023-03-04T00:17:11.115Z,52.40
2023-03-04T00:19:37.573Z,52.40
2023-03-04T00:22:04.247Z,52.20
2023-03-04T00:24:30.921Z,52.20
2023-03-04T00:26:57.403Z,52.30
2023-03-04T00:29:23.871Z,52.80
2023-03-04T00:31:50.374Z,52.20
2023-03-04T00:34:16.891Z,52.20
2023-03-04T00:36:43.378Z,52.30
2023-03-04T00:39:09.832Z,52.20
2023-03-04T00:41:36.285Z,52.30
2023-03-04T00:44:02.763Z,52.40
2023-03-04T00:46:29.237Z,52.40
2023-03-04T00:48:55.723Z,52.50
2023-03-04T00:51:22.201Z,52.50
2023-03-04T00:53:48.678Z,52.50
2023-03-04T00:56:15.172Z,52.40
2023-03-04T00:58:41.651Z,52.60
2023-03-04T01:01:08.207Z,52.50
2023-03-04T01:03:34.733Z,52.40
2023-03-04T01:06:01.193Z,52.40
2023-03-04T01:08:27.688Z,52.40
2023-03-04T01:10:54.177Z,52.50
2023-03-04T01:13:21.340Z,52.50
2023-03-04T01:15:47.829Z,53.10
2023-03-04T01:18:14.395Z,52.60
2023-03-04T01:20:40.885Z,52.80
2023-03-04T01:23:07.395Z,52.80
2023-03-04T01:25:33.877Z,52.60
2023-03-04T01:28:00.355Z,52.50
2023-03-04T01:30:26.838Z,52.70
2023-03-04T01:32:53.490Z,52.60
2023-03-04T01:35:20.022Z,52.70
2023-03-04T01:37:46.563Z,52.60
2023-03-04T01:40:13.043Z,52.80
2023-03-04T01:42:39.535Z,52.80
2023-03-04T01:45:05.994Z,52.60
2023-03-04T01:47:32.485Z,52.70
2023-03-04T01:49:58.953Z,52.80
2023-03-04T01:52:25.442Z,52.70
2023-03-04T01:54:51.915Z,52.60
2023-03-04T01:57:18.438Z,52.60
2023-03-04T01:59:44.926Z,52.60
2023-03-04T02:02:11.378Z,52.60
2023-03-04T02:04:37.895Z,52.60
2023-03-04T02:07:04.434Z,52.50
2023-03-04T02:09:30.934Z,52.60
2023-03-04T02:11:57.398Z,52.70
2023-03-04T02:14:23.890Z,52.60
2023-03-04T02:16:50.421Z,52.50
2023-03-04T02:19:16.890Z,52.50
2023-03-04T02:21:43.370Z,52.50
2023-03-04T02:24:09.889Z,52.40
2023-03-04T02:26:36.350Z,52.30
2023-03-04T02:29:02.860Z,52.50
2023-03-04T02:31:29.354Z,52.50
2023-03-04T02:33:55.901Z,52.50
2023-03-04T02:36:22.401Z,52.70
2023-03-04T02:38:48.890Z,52.90
2023-03-04T02:41:15.381Z,52.80
2023-03-04T02:43:41.865Z,52.90
2023-03-04T02:46:08.417Z,52.90
2023-03-04T02:48:34.929Z,52.80
2023-03-04T02:51:01.408Z,52.80
2023-03-04T02:53:27.909Z,52.60
2023-03-04T02:55:54.401Z,52.50
2023-03-04T02:58:20.873Z,52.70
2023-03-04T03:00:47.340Z,52.80
2023-03-04T03:03:13.867Z,52.80
2023-03-04T03:05:40.380Z,52.80
2023-03-04T03:08:06.848Z,52.80
2023-03-04T03:10:33.333Z,52.80
2023-03-04T03:12:59.813Z,52.60
2023-03-04T03:15:26.306Z,52.60
2023-03-04T03:17:52.759Z,52.80
2023-03-04T03:20:19.247Z,52.80
2023-03-04T03:22:45.722Z,52.80
2023-03-04T03:25:12.203Z,52.80
2023-03-04T03:27:38.679Z,53.00
2023-03-04T03:30:05.173Z,52.90
2023-03-04T03:32:31.718Z,52.90
2023-03-04T03:34:58.243Z,52.90
2023-03-04T03:37:24.713Z,52.80
2023-03-04T03:39:51.215Z,52.70
2023-03-04T03:42:17.689Z,52.90
2023-03-04T03:44:44.193Z,53.00
2023-03-04T03:47:10.690Z,53.00
2023-03-04T03:49:37.171Z,52.90
2023-03-04T03:52:03.644Z,52.90
2023-03-04T03:54:30.124Z,52.90
2023-03-04T03:56:56.594Z,53.10
2023-03-04T03:59:23.076Z,52.90
2023-03-04T04:01:49.584Z,52.80
2023-03-04T04:04:16.099Z,52.80
2023-03-04T04:06:42.577Z,52.80
2023-03-04T04:09:09.033Z,52.80
2023-03-04T04:11:35.527Z,52.80
2023-03-04T04:14:02.006Z,53.00
2023-03-04T04:16:28.519Z,53.00
2023-03-04T04:18:54.985Z,53.10
2023-03-04T04:21:21.444Z,53.10
2023-03-04T04:23:47.920Z,53.20
2023-03-04T04:26:14.393Z,53.30
2023-03-04T04:28:40.852Z,53.20
2023-03-04T04:31:07.366Z,53.20
2023-03-04T04:33:33.849Z,53.10
2023-03-04T04:36:00.342Z,53.00
2023-03-04T04:38:26.841Z,53.00
2023-03-04T04:40:53.309Z,53.10
2023-03-04T04:43:19.750Z,53.20
2023-03-04T04:45:46.302Z,53.10
2023-03-04T04:48:12.821Z,53.20
2023-03-04T04:50:39.314Z,53.10
2023-03-04T04:53:05.791Z,53.20
2023-03-04T04:55:32.286Z,53.10
2023-03-04T04:57:58.762Z,53.00
2023-03-04T05:00:25.261Z,53.20
2023-03-04T05:02:51.768Z,53.30
2023-03-04T05:05:18.318Z,53.20
2023-03-04T05:07:44.785Z,53.30
2023-03-04T05:10:11.251Z,53.30
2023-03-04T05:12:37.882Z,53.30
2023-03-04T05:15:04.370Z,53.30
2023-03-04T05:17:30.838Z,53.20
2023-03-04T05:19:57.309Z,53.30
2023-03-04T05:22:23.794Z,53.30
2023-03-04T05:24:50.273Z,53.30
2023-03-04T05:27:16.755Z,53.20
2023-03-04T05:29:43.223Z,53.10
2023-03-04T05:32:09.730Z,53.10
2023-03-04T05:34:36.253Z,53.10
2023-03-04T05:37:02.720Z,53.20
2023-03-04T05:39:29.176Z,53.40
2023-03-04T05:41:55.658Z,53.40
2023-03-04T05:44:22.125Z,53.60
2023-03-04T05:46:48.677Z,53.60
2023-03-04T05:49:15.180Z,53.50
2023-03-04T05:51:41.681Z,53.60
2023-03-04T05:54:08.153Z,53.60
2023-03-04T05:56:34.645Z,53.90
2023-03-04T05:59:01.100Z,53.80
2023-03-04T06:01:27.625Z,53.60
2023-03-04T06:03:54.139Z,53.50
2023-03-04T06:06:20.652Z,53.60
2023-03-04T06:08:47.152Z,53.60
2023-03-04T06:11:13.658Z,53.80
2023-03-04T06:13:40.185Z,53.70
2023-03-04T06:16:06.738Z,53.80
2023-03-04T06:18:33.222Z,53.80
2023-03-04T06:20:59.760Z,53.60
2023-03-04T06:23:26.227Z,53.60
2023-03-04T06:25:52.721Z,53.70
2023-03-04T06:28:19.189Z,53.60
2023-03-04T06:30:45.682Z,53.70
2023-03-04T06:33:12.168Z,53.60
2023-03-04T06:35:38.691Z,53.40
2023-03-04T06:38:05.195Z,53.30
2023-03-04T06:40:31.713Z,53.40
2023-03-04T06:42:58.190Z,53.50
2023-03-04T06:45:24.671Z,53.80
2023-03-04T06:47:51.145Z,53.90
2023-03-04T06:50:17.611Z,53.80
2023-03-04T06:52:44.087Z,53.90
2023-03-04T06:55:10.564Z,54.00
2023-03-04T06:57:37.046Z,53.90
2023-03-04T07:00:03.534Z,54.00
2023-03-04T07:02:30.038Z,54.00
2023-03-04T07:04:56.518Z,54.00
2023-03-04T07:07:22.992Z,54.00
2023-03-04T07:09:49.459Z,54.00
2023-03-04T07:12:15.947Z,54.00
2023-03-04T07:14:42.422Z,54.00
2023-03-04T07:17:08.902Z,54.00
2023-03-04T07:19:35.358Z,54.20
2023-03-04T07:22:01.860Z,54.10
2023-03-04T07:24:28.342Z,54.30
2023-03-04T07:26:54.807Z,54.20
2023-03-04T07:29:21.280Z,54.20
2023-03-04T07:31:47.785Z,54.40
2023-03-04T07:34:14.283Z,54.60
2023-03-04T07:36:40.754Z,54.60
2023-03-04T07:39:07.238Z,54.60
2023-03-04T07:41:33.713Z,54.60
2023-03-04T07:44:00.203Z,54.50
2023-03-04T07:46:26.698Z,54.60
2023-03-04T07:48:53.243Z,54.60
2023-03-04T07:51:19.754Z,54.50
2023-03-04T07:53:46.213Z,54.60
2023-03-04T07:56:12.718Z,54.50
2023-03-04T07:58:39.211Z,54.50
2023-03-04T08:01:05.706Z,54.40
2023-03-04T08:03:32.177Z,54.60
2023-03-04T08:05:58.682Z,54.80
2023-03-04T08:08:25.162Z,54.80
2023-03-04T08:10:51.666Z,54.90
2023-03-04T08:13:18.144Z,54.90
2023-03-04T08:15:44.660Z,55.10
2023-03-04T08:18:11.151Z,55.00
2023-03-04T08:20:37.635Z,55.10
2023-03-04T08:23:04.101Z,55.00
2023-03-04T08:25:30.605Z,55.00
2023-03-04T08:27:57.090Z,55.20
2023-03-04T08:30:23.558Z,55.30
2023-03-04T08:32:50.103Z,55.20
2023-03-04T08:35:16.584Z,55.20
2023-03-04T08:37:43.043Z,55.30
2023-03-04T08:40:09.516Z,55.40
2023-03-04T08:42:36.010Z,55.30
2023-03-04T08:45:02.500Z,55.40
2023-03-04T08:47:28.979Z,55.30
2023-03-04T08:49:55.464Z,55.40
2023-03-04T08:52:21.948Z,55.20
2023-03-04T08:54:48.420Z,55.50
2023-03-04T08:57:14.928Z,55.30
2023-03-04T08:59:41.402Z,55.40
2023-03-04T09:02:07.979Z,55.30
2023-03-04T09:04:34.474Z,55.60
2023-03-04T09:07:00.974Z,55.50
2023-03-04T09:09:27.442Z,55.60
2023-03-04T09:11:53.934Z,55.40
2023-03-04T09:14:20.433Z,55.40
2023-03-04T09:16:46.949Z,55.60
2023-03-04T09:19:13.417Z,55.90
2023-03-04T09:21:39.891Z,55.90
2023-03-04T09:24:06.356Z,56.00
2023-03-04T09:26:32.865Z,56.20
2023-03-04T09:28:59.359Z,56.00
2023-03-04T09:31:25.897Z,56.20
2023-03-04T09:33:52.400Z,56.60
2023-03-04T09:36:18.888Z,56.70
2023-03-04T09:38:45.387Z,56.40
2023-03-04T09:41:11.855Z,56.50
2023-03-04T09:43:38.335Z,56.80
2023-03-04T09:46:04.806Z,56.90
2023-03-04T09:48:31.293Z,57.10
2023-03-04T09:50:57.763Z,57.40
2023-03-04T09:53:24.258Z,57.50
2023-03-04T09:55:50.724Z,57.30
2023-03-04T09:58:17.206Z,57.20
2023-03-04T10:00:43.743Z,57.40
2023-03-04T10:03:10.330Z,57.70
2023-03-04T10:05:36.862Z,57.20
2023-03-04T10:08:03.351Z,57.40
2023-03-04T10:10:29.843Z,57.80
2023-03-04T10:12:56.392Z,57.20
2023-03-04T10:15:22.871Z,57.40
2023-03-04T10:17:49.362Z,57.20
2023-03-04T10:20:15.821Z,57.90
2023-03-04T10:22:42.307Z,57.50
2023-03-04T10:25:08.760Z,57.50
2023-03-04T10:27:35.271Z,57.60
2023-03-04T10:30:01.743Z,58.00
2023-03-04T10:32:28.275Z,57.70
2023-03-04T10:34:54.794Z,57.60
2023-03-04T10:37:21.280Z,57.50
2023-03-04T10:39:47.752Z,57.50
2023-03-04T10:42:15.477Z,57.80
2023-03-04T10:44:42.164Z,57.80
2023-03-04T10:47:08.625Z,58.40
2023-03-04T10:49:35.112Z,58.20
2023-03-04T10:52:01.585Z,58.00
2023-03-04T10:54:28.095Z,58.20
2023-03-04T10:56:54.592Z,58.10
2023-03-04T10:59:21.076Z,58.30
2023-03-04T11:01:47.564Z,58.20
2023-03-04T11:04:14.055Z,58.20
2023-03-04T11:06:40.538Z,58.30
2023-03-04T11:09:07.022Z,58.20
2023-03-04T11:11:33.515Z,58.70
2023-03-04T11:13:59.981Z,58.70
2023-03-04T11:16:26.462Z,59.30
2023-03-04T11:18:52.983Z,58.80
2023-03-04T11:21:19.467Z,58.70
2023-03-04T11:23:45.963Z,58.70
2023-03-04T11:26:12.435Z,58.90
2023-03-04T11:28:38.913Z,59.10
2023-03-04T11:31:05.383Z,59.10
2023-03-04T11:33:31.880Z,59.10
2023-03-04T11:35:58.499Z,58.80
2023-03-04T11:38:25.061Z,59.30
2023-03-04T11:40:51.558Z,58.90
2023-03-04T11:43:18.054Z,59.80
2023-03-04T11:45:44.569Z,59.30
2023-03-04T11:48:11.067Z,59.70
2023-03-04T11:50:37.548Z,59.80
2023-03-04T11:53:04.018Z,59.80
2023-03-04T11:55:30.483Z,60.00
2023-03-04T11:57:56.953Z,60.00
2023-03-04T12:00:23.441Z,59.80
2023-03-04T12:02:49.916Z,59.70
2023-03-04T12:05:16.412Z,60.10
2023-03-04T12:07:42.893Z,60.00
2023-03-04T12:10:09.399Z,60.00
2023-03-04T12:12:35.899Z,59.80
2023-03-04T12:15:02.400Z,59.80
2023-03-04T12:17:28.876Z,59.70
2023-03-04T12:19:55.358Z,60.70
2023-03-04T12:22:21.803Z,60.10
2023-03-04T12:24:48.275Z,60.30
2023-03-04T12:27:14.748Z,60.80
2023-03-04T12:29:41.251Z,60.20
2023-03-04T12:32:07.754Z,61.00
2023-03-04T12:34:34.277Z,61.00
2023-03-04T12:37:00.757Z,60.30
2023-03-04T12:39:27.250Z,61.10
2023-03-04T12:41:53.721Z,60.40
2023-03-04T12:44:20.308Z,60.30
2023-03-04T12:46:46.868Z,60.50
2023-03-04T12:49:13.361Z,61.00
2023-03-04T12:51:39.840Z,61.10
2023-03-04T12:54:06.305Z,61.10
2023-03-04T12:56:32.785Z,61.00
2023-03-04T12:58:59.270Z,61.40
2023-03-04T13:01:25.763Z,61.10
2023-03-04T13:03:52.271Z,61.30
2023-03-04T13:06:18.831Z,61.10
2023-03-04T13:08:45.309Z,61.20
2023-03-04T13:11:11.798Z,61.50
2023-03-04T13:13:38.281Z,61.50
2023-03-04T13:16:04.806Z,61.90
2023-03-04T13:18:31.306Z,61.90
2023-03-04T13:20:57.946Z,61.50
2023-03-04T13:23:24.421Z,61.00
2023-03-04T13:25:50.985Z,61.50
2023-03-04T13:28:17.526Z,61.20
2023-03-04T13:30:44.032Z,61.10
2023-03-04T13:33:10.549Z,61.40
2023-03-04T13:35:37.120Z,61.50
2023-03-04T13:38:04.968Z,61.10
2023-03-04T13:40:31.514Z,61.00
2023-03-04T13:42:57.972Z,60.90
2023-03-04T13:45:24.459Z,61.00
2023-03-04T13:47:50.930Z,62.00
2023-03-04T13:50:17.424Z,61.60
2023-03-04T13:52:43.895Z,61.90
2023-03-04T13:55:10.387Z,61.90
2023-03-04T13:57:36.864Z,62.00
2023-03-04T14:00:03.320Z,61.60
2023-03-04T14:02:29.777Z,62.00
2023-03-04T14:04:56.240Z,61.80
2023-03-04T14:07:22.724Z,62.10
2023-03-04T14:09:49.208Z,62.50
2023-03-04T14:12:15.680Z,62.40
2023-03-04T14:14:42.156Z,62.10
2023-03-04T14:17:08.663Z,62.00
2023-03-04T14:19:35.148Z,62.10
2023-03-04T14:22:01.628Z,62.50
2023-03-04T14:24:28.112Z,62.30
2023-03-04T14:26:54.603Z,62.30
2023-03-04T14:29:21.057Z,62.50
2023-03-04T14:31:47.553Z,62.40
2023-03-04T14:34:14.048Z,62.50
2023-03-04T14:36:40.504Z,62.50
2023-03-04T14:39:06.986Z,62.40
2023-03-04T14:41:33.468Z,62.10
2023-03-04T14:43:59.939Z,62.70
2023-03-04T14:46:26.436Z,62.30
2023-03-04T14:48:52.915Z,62.00
2023-03-04T14:51:19.396Z,61.90
2023-03-04T14:53:45.891Z,61.90
2023-03-04T14:56:12.370Z,61.60
2023-03-04T14:58:38.856Z,61.50
2023-03-04T15:01:05.390Z,61.50
2023-03-04T15:03:32.103Z,61.50
2023-03-04T15:05:58.674Z,61.50
2023-03-04T15:08:25.148Z,61.40
2023-03-04T15:10:51.656Z,61.40
2023-03-04T15:13:18.127Z,61.30
2023-03-04T15:15:44.684Z,61.00
2023-03-04T15:18:11.241Z,61.30
2023-03-04T15:20:37.738Z,61.20
2023-03-04T15:23:04.224Z,61.20
2023-03-04T15:25:30.728Z,61.60
2023-03-04T15:27:57.218Z,61.60
2023-03-04T15:30:23.720Z,61.10
2023-03-04T15:32:50.186Z,60.90
2023-03-04T15:35:22.044Z,60.90
2023-03-04T15:37:48.540Z,60.80
2023-03-04T15:40:15.055Z,61.00
2023-03-04T15:42:41.546Z,61.00
2023-03-04T15:45:08.028Z,61.00
2023-03-04T15:47:34.501Z,61.60
2023-03-04T15:50:00.983Z,60.40
2023-03-04T15:52:27.477Z,60.20
2023-03-04T15:54:53.931Z,60.50
2023-03-04T15:57:20.413Z,60.50
2023-03-04T15:59:46.885Z,60.00
2023-03-04T16:02:13.357Z,60.40
2023-03-04T16:04:39.849Z,59.90
2023-03-04T16:07:06.339Z,60.90
2023-03-04T16:09:32.831Z,60.30
2023-03-04T16:11:59.297Z,60.10
2023-03-04T16:14:25.752Z,60.00
2023-03-04T16:16:52.232Z,59.80
2023-03-04T16:19:18.715Z,59.90
2023-03-04T16:21:46.063Z,59.80
2023-03-04T16:24:12.543Z,59.60
2023-03-04T16:26:38.995Z,59.60
2023-03-04T16:29:05.475Z,59.30
2023-03-04T16:31:32.010Z,59.20
2023-03-04T16:33:58.504Z,59.10
2023-03-04T16:36:25.030Z,59.10
2023-03-04T16:38:51.535Z,59.10
2023-03-04T16:41:18.017Z,59.10
2023-03-04T16:43:44.498Z,59.20
2023-03-04T16:46:11.029Z,59.20
2023-03-04T16:48:37.526Z,58.80
2023-03-04T16:51:04.009Z,58.90
2023-03-04T16:53:30.470Z,58.90
2023-03-04T16:55:56.958Z,59.00
2023-03-04T16:58:23.434Z,58.60
2023-03-04T17:00:49.926Z,59.00
2023-03-04T17:03:16.406Z,58.80
2023-03-04T17:05:42.912Z,59.20
2023-03-04T17:08:09.385Z,58.60
2023-03-04T17:10:35.879Z,58.20
2023-03-04T17:13:02.339Z,58.40
2023-03-04T17:15:28.850Z,58.40
2023-03-04T17:17:55.311Z,59.10
2023-03-04T17:20:21.801Z,58.30
2023-03-04T17:22:48.265Z,58.30
2023-03-04T17:25:14.726Z,58.50
2023-03-04T17:27:41.212Z,58.30
2023-03-04T17:30:08.961Z,58.50
2023-03-04T17:32:36.979Z,58.40
2023-03-04T17:35:03.443Z,58.60
2023-03-04T17:37:29.902Z,58.40
2023-03-04T17:39:56.371Z,58.20
2023-03-04T17:42:22.853Z,58.20
2023-03-04T17:44:49.335Z,58.30
2023-03-04T17:47:15.820Z,58.30
2023-03-04T17:49:42.284Z,58.00
2023-03-04T17:52:08.760Z,58.30
2023-03-04T17:54:35.242Z,58.20
2023-03-04T17:57:01.738Z,58.40
2023-03-04T17:59:28.218Z,58.20
2023-03-04T18:01:54.722Z,58.40
2023-03-04T18:04:21.259Z,57.90
2023-03-04T18:06:47.753Z,58.10
2023-03-04T18:09:14.230Z,57.10
2023-03-04T18:11:40.725Z,58.30
2023-03-04T18:14:10.337Z,57.30
2023-03-04T18:16:36.835Z,57.10
2023-03-04T18:19:03.323Z,57.10
2023-03-04T18:21:29.787Z,58.00
2023-03-04T18:23:56.263Z,58.10
2023-03-04T18:26:22.728Z,58.20
2023-03-04T18:28:49.193Z,57.10
2023-03-04T18:31:17.360Z,58.10
2023-03-04T18:33:43.882Z,58.20
2023-03-04T18:36:10.380Z,58.00
2023-03-04T18:38:36.850Z,58.20
2023-03-04T18:41:03.344Z,57.50
2023-03-04T18:43:29.813Z,57.30
2023-03-04T18:45:56.352Z,58.40
2023-03-04T18:48:22.827Z,58.40
2023-03-04T18:50:49.318Z,58.50
2023-03-04T18:53:15.789Z,57.50
2023-03-04T18:55:42.240Z,57.60
2023-03-04T18:58:08.726Z,58.40
2023-03-04T19:00:35.216Z,57.70
2023-03-04T19:03:01.678Z,57.60
2023-03-04T19:05:28.143Z,58.20
2023-03-04T19:07:54.614Z,58.40
2023-03-04T19:10:21.096Z,58.40
2023-03-04T19:12:47.598Z,58.50
2023-03-04T19:15:14.068Z,58.50
2023-03-04T19:17:40.548Z,57.50
2023-03-04T19:20:07.025Z,57.50
2023-03-04T19:22:33.527Z,57.20
2023-03-04T19:24:59.989Z,57.20
2023-03-04T19:27:26.466Z,57.10
2023-03-04T19:29:52.969Z,57.00
2023-03-04T19:32:19.474Z,57.00
2023-03-04T19:34:45.982Z,56.80
2023-03-04T19:37:12.446Z,56.70
2023-03-04T19:39:38.935Z,56.80
2023-03-04T19:42:05.434Z,56.90
2023-03-04T19:44:31.946Z,56.80
2023-03-04T19:46:58.454Z,56.90
2023-03-04T19:49:24.931Z,56.60
2023-03-04T19:51:51.440Z,56.50
2023-03-04T19:54:17.918Z,56.40
2023-03-04T19:56:44.421Z,56.20
2023-03-04T19:59:10.876Z,56.60
2023-03-04T20:01:37.444Z,56.50
2023-03-04T20:04:04.031Z,56.50
2023-03-04T20:06:30.546Z,56.50
2023-03-04T20:08:57.011Z,56.80
2023-03-04T20:11:23.487Z,56.80
2023-03-04T20:13:49.979Z,56.50
2023-03-04T20:16:16.565Z,56.50
2023-03-04T20:18:43.107Z,56.40
2023-03-04T20:21:09.576Z,56.60
2023-03-04T20:23:36.061Z,56.50
2023-03-04T20:26:02.525Z,56.30
2023-03-04T20:28:28.992Z,56.40
2023-03-04T20:30:55.482Z,56.30
2023-03-04T20:33:21.974Z,56.30
2023-03-04T20:35:48.495Z,56.20
2023-03-04T20:38:15.008Z,56.20
2023-03-04T20:40:41.520Z,57.30
2023-03-04T20:43:08.029Z,57.30
2023-03-04T20:45:34.515Z,56.40
2023-03-04T20:48:01.014Z,57.10
2023-03-04T20:50:27.507Z,57.10
2023-03-04T20:52:53.990Z,56.30
2023-03-04T20:55:20.471Z,56.20
2023-03-04T20:57:46.958Z,56.00
2023-03-04T21:00:13.436Z,55.90
2023-03-04T21:02:39.925Z,56.00
2023-03-04T21:05:06.385Z,56.20
2023-03-04T21:07:32.843Z,56.00
2023-03-04T21:09:59.302Z,56.00
2023-03-04T21:12:25.794Z,56.00
2023-03-04T21:14:52.251Z,56.00
2023-03-04T21:17:18.738Z,55.90
2023-03-04T21:19:45.238Z,56.10
2023-03-04T21:22:11.716Z,57.00
2023-03-04T21:24:38.195Z,56.80
2023-03-04T21:27:04.747Z,56.10
2023-03-04T21:29:31.229Z,55.90
2023-03-04T21:31:57.784Z,56.10
2023-03-04T21:34:24.298Z,55.90
2023-03-04T21:36:52.285Z,56.80
2023-03-04T21:39:18.789Z,56.90
2023-03-04T21:41:45.263Z,57.00
2023-03-04T21:44:22.532Z,56.90
2023-03-04T21:46:54.859Z,56.80
2023-03-04T21:49:21.392Z,56.40
2023-03-04T21:51:47.870Z,56.80
2023-03-04T21:54:14.369Z,55.90
2023-03-04T21:56:46.553Z,56.60
2023-03-04T21:59:13.037Z,55.90
2023-03-04T22:01:39.534Z,55.60
2023-03-04T22:04:06.072Z,56.50
2023-03-04T22:06:32.561Z,56.70
2023-03-04T22:08:59.051Z,56.80
2023-03-04T22:11:25.512Z,56.80
2023-03-04T22:13:51.981Z,56.60
2023-03-04T22:16:18.483Z,56.60
2023-03-04T22:18:44.975Z,55.70
2023-03-04T22:21:11.467Z,55.70
2023-03-04T22:23:37.961Z,55.60
2023-03-04T22:26:04.460Z,55.50
2023-03-04T22:28:30.970Z,55.50
2023-03-04T22:30:57.433Z,55.30
2023-03-04T22:33:23.903Z,55.50
2023-03-04T22:35:50.432Z,55.60
2023-03-04T22:38:16.965Z,56.50
2023-03-04T22:40:43.438Z,56.60
2023-03-04T22:43:09.922Z,56.50
2023-03-04T22:45:36.444Z,56.50
2023-03-04T22:48:02.983Z,55.40
2023-03-04T22:50:29.465Z,55.30
2023-03-04T22:52:55.942Z,56.30
2023-03-04T22:55:22.415Z,56.50
2023-03-04T22:57:48.876Z,56.40
2023-03-04T23:00:15.334Z,56.30
2023-03-04T23:02:41.831Z,57.10
2023-03-04T23:05:08.340Z,56.40
2023-03-04T23:07:34.823Z,55.40
2023-03-04T23:10:01.319Z,55.30
2023-03-04T23:12:27.799Z,55.30
2023-03-04T23:14:54.314Z,56.30
2023-03-04T23:17:20.836Z,55.20
2023-03-04T23:19:47.318Z,55.00
2023-03-04T23:22:13.803Z,55.80
2023-03-04T23:24:40.281Z,56.20
2023-03-04T23:27:06.758Z,56.40
2023-03-04T23:29:33.231Z,56.20
2023-03-04T23:31:59.725Z,56.20
2023-03-04T23:34:26.242Z,56.20
2023-03-04T23:36:52.705Z,56.20
2023-03-04T23:39:19.180Z,56.30
2023-03-04T23:41:45.630Z,56.30
2023-03-04T23:44:12.121Z,56.30
2023-03-04T23:46:38.623Z,56.30
2023-03-04T23:49:05.138Z,56.20
2023-03-04T23:51:31.594Z,56.10
2023-03-04T23:53:58.093Z,56.10
2023-03-04T23:56:24.573Z,56.10
2023-03-04T23:58:51.076Z,56.20
